sensor_id;sensor_type;location;lat;lon;timestamp;P1;durP1;ratioP1;P2;durP2;ratioP2
13419;SDS011;6781;58.440;15.470;2023-08-01T00:01:14;0.98;;;0.90;;
13419;SDS011;6781;58.440;15.470;2023-08-01T00:03:41;1.73;;;0.90;;
13419;SDS011;6781;58.440;15.470;2023-08-01T00:06:09;0.90;;;0.90;;
13419;SDS011;6781;58.440;15.470;2023-08-01T00:08:37;1.48;;;1.00;;
13419;SDS011;6781;58.440;15.470;2023-08-01T00:11:04;2.13;;;0.70;;
13419;SDS011;6781;58.440;15.470;2023-08-01T00:13:31;1.85;;;1.00;;
13419;SDS011;6781;58.440;15.470;2023-08-01T00:15:58;1.25;;;0.85;;
13419;SDS011;6781;58.440;15.470;2023-08-01T00:18:25;2.40;;;1.10;;
13419;SDS011;6781;58.440;15.470;2023-08-01T00:20:52;1.10;;;1.10;;
13419;SDS011;6781;58.440;15.470;2023-08-01T00:23:20;2.00;;;1.02;;
13419;SDS011;6781;58.440;15.470;2023-08-01T00:25:48;2.53;;;1.13;;
13419;SDS011;6781;58.440;15.470;2023-08-01T00:28:17;1.98;;;1.00;;
13419;SDS011;6781;58.440;15.470;2023-08-01T00:30:43;2.38;;;1.20;;
13419;SDS011;6781;58.440;15.470;2023-08-01T00:33:10;1.38;;;0.85;;
13419;SDS011;6781;58.440;15.470;2023-08-01T00:35:38;1.00;;;0.90;;
13419;SDS011;6781;58.440;15.470;2023-08-01T00:38:05;2.40;;;1.00;;
13419;SDS011;6781;58.440;15.470;2023-08-01T00:40:32;1.25;;;0.90;;
13419;SDS011;6781;58.440;15.470;2023-08-01T00:43:01;0.98;;;0.82;;
13419;SDS011;6781;58.440;15.470;2023-08-01T00:45:28;1.77;;;0.95;;
13419;SDS011;6781;58.440;15.470;2023-08-01T00:47:56;1.88;;;1.00;;
13419;SDS011;6781;58.440;15.470;2023-08-01T00:50:23;2.53;;;1.00;;
13419;SDS011;6781;58.440;15.470;2023-08-01T00:52:51;2.03;;;1.00;;
13419;SDS011;6781;58.440;15.470;2023-08-01T00:55:19;5.18;;;1.00;;
13419;SDS011;6781;58.440;15.470;2023-08-01T00:57:47;1.77;;;1.15;;
13419;SDS011;6781;58.440;15.470;2023-08-01T01:00:16;2.35;;;0.90;;
13419;SDS011;6781;58.440;15.470;2023-08-01T01:02:44;0.82;;;0.82;;
13419;SDS011;6781;58.440;15.470;2023-08-01T01:05:11;2.55;;;1.20;;
13419;SDS011;6781;58.440;15.470;2023-08-01T01:07:40;1.20;;;0.90;;
13419;SDS011;6781;58.440;15.470;2023-08-01T01:10:08;2.25;;;1.05;;
13419;SDS011;6781;58.440;15.470;2023-08-01T01:12:36;2.45;;;1.10;;
13419;SDS011;6781;58.440;15.470;2023-08-01T01:15:03;2.83;;;1.05;;
13419;SDS011;6781;58.440;15.470;2023-08-01T01:17:32;3.90;;;1.20;;
13419;SDS011;6781;58.440;15.470;2023-08-01T01:20:00;2.63;;;1.20;;
13419;SDS011;6781;58.440;15.470;2023-08-01T01:22:28;3.50;;;0.90;;
13419;SDS011;6781;58.440;15.470;2023-08-01T01:24:56;1.50;;;1.00;;
13419;SDS011;6781;58.440;15.470;2023-08-01T01:27:26;1.60;;;1.02;;
13419;SDS011;6781;58.440;15.470;2023-08-01T01:29:54;3.10;;;1.30;;
13419;SDS011;6781;58.440;15.470;2023-08-01T01:32:21;2.88;;;1.20;;
13419;SDS011;6781;58.440;15.470;2023-08-01T01:34:50;0.95;;;0.95;;
13419;SDS011;6781;58.440;15.470;2023-08-01T01:37:17;1.13;;;1.00;;
13419;SDS011;6781;58.440;15.470;2023-08-01T01:39:45;1.50;;;1.00;;
13419;SDS011;6781;58.440;15.470;2023-08-01T01:42:12;1.10;;;1.00;;
13419;SDS011;6781;58.440;15.470;2023-08-01T01:44:39;1.52;;;1.40;;
13419;SDS011;6781;58.440;15.470;2023-08-01T01:47:06;1.98;;;1.30;;
13419;SDS011;6781;58.440;15.470;2023-08-01T01:49:33;1.70;;;1.30;;
13419;SDS011;6781;58.440;15.470;2023-08-01T01:52:00;1.98;;;1.20;;
13419;SDS011;6781;58.440;15.470;2023-08-01T01:54:27;1.27;;;1.20;;
13419;SDS011;6781;58.440;15.470;2023-08-01T01:56:56;2.42;;;1.33;;
13419;SDS011;6781;58.440;15.470;2023-08-01T01:59:23;1.15;;;1.00;;
13419;SDS011;6781;58.440;15.470;2023-08-01T02:01:50;2.83;;;1.17;;
13419;SDS011;6781;58.440;15.470;2023-08-01T02:04:17;1.17;;;1.10;;
13419;SDS011;6781;58.440;15.470;2023-08-01T02:09:19;2.72;;;1.02;;
13419;SDS011;6781;58.440;15.470;2023-08-01T02:11:46;1.40;;;1.10;;
13419;SDS011;6781;58.440;15.470;2023-08-01T02:14:15;1.30;;;1.20;;
13419;SDS011;6781;58.440;15.470;2023-08-01T02:16:42;2.72;;;1.20;;
13419;SDS011;6781;58.440;15.470;2023-08-01T02:19:09;1.45;;;1.35;;
13419;SDS011;6781;58.440;15.470;2023-08-01T02:21:36;1.13;;;1.02;;
13419;SDS011;6781;58.440;15.470;2023-08-01T02:24:04;3.17;;;1.30;;
13419;SDS011;6781;58.440;15.470;2023-08-01T02:26:31;1.20;;;1.10;;
13419;SDS011;6781;58.440;15.470;2023-08-01T02:28:58;1.00;;;0.98;;
13419;SDS011;6781;58.440;15.470;2023-08-01T02:31:26;4.20;;;1.30;;
13419;SDS011;6781;58.440;15.470;2023-08-01T02:33:53;1.77;;;1.20;;
13419;SDS011;6781;58.440;15.470;2023-08-01T02:36:20;2.65;;;1.17;;
13419;SDS011;6781;58.440;15.470;2023-08-01T02:38:47;1.48;;;1.30;;
13419;SDS011;6781;58.440;15.470;2023-08-01T02:41:14;1.40;;;1.30;;
13419;SDS011;6781;58.440;15.470;2023-08-01T02:43:42;2.70;;;1.40;;
13419;SDS011;6781;58.440;15.470;2023-08-01T02:46:09;3.47;;;1.20;;
13419;SDS011;6781;58.440;15.470;2023-08-01T02:48:37;2.92;;;1.20;;
13419;SDS011;6781;58.440;15.470;2023-08-01T02:51:04;5.88;;;1.23;;
13419;SDS011;6781;58.440;15.470;2023-08-01T02:53:34;1.20;;;1.10;;
13419;SDS011;6781;58.440;15.470;2023-08-01T02:56:01;1.20;;;1.10;;
13419;SDS011;6781;58.440;15.470;2023-08-01T02:58:30;3.67;;;1.20;;
13419;SDS011;6781;58.440;15.470;2023-08-01T03:00:57;1.42;;;1.33;;
13419;SDS011;6781;58.440;15.470;2023-08-01T03:03:24;2.20;;;1.50;;
13419;SDS011;6781;58.440;15.470;2023-08-01T03:05:53;2.05;;;1.30;;
13419;SDS011;6781;58.440;15.470;2023-08-01T03:08:20;1.20;;;1.20;;
13419;SDS011;6781;58.440;15.470;2023-08-01T03:10:47;2.15;;;1.25;;
13419;SDS011;6781;58.440;15.470;2023-08-01T03:13:14;1.10;;;1.10;;
13419;SDS011;6781;58.440;15.470;2023-08-01T03:15:41;1.88;;;1.25;;
13419;SDS011;6781;58.440;15.470;2023-08-01T03:18:08;1.20;;;1.20;;
13419;SDS011;6781;58.440;15.470;2023-08-01T03:20:35;2.10;;;1.20;;
13419;SDS011;6781;58.440;15.470;2023-08-01T03:23:04;3.30;;;1.50;;
13419;SDS011;6781;58.440;15.470;2023-08-01T03:25:32;3.40;;;1.42;;
13419;SDS011;6781;58.440;15.470;2023-08-01T03:27:59;2.55;;;1.55;;
13419;SDS011;6781;58.440;15.470;2023-08-01T03:30:26;2.45;;;1.73;;
13419;SDS011;6781;58.440;15.470;2023-08-01T03:32:53;2.78;;;1.40;;
13419;SDS011;6781;58.440;15.470;2023-08-01T03:35:20;1.50;;;1.40;;
13419;SDS011;6781;58.440;15.470;2023-08-01T03:37:49;2.30;;;1.25;;
13419;SDS011;6781;58.440;15.470;2023-08-01T03:40:17;2.08;;;1.27;;
13419;SDS011;6781;58.440;15.470;2023-08-01T03:42:45;1.83;;;1.27;;
13419;SDS011;6781;58.440;15.470;2023-08-01T03:45:12;1.48;;;1.25;;
13419;SDS011;6781;58.440;15.470;2023-08-01T03:47:38;4.22;;;1.10;;
13419;SDS011;6781;58.440;15.470;2023-08-01T03:50:06;1.20;;;1.10;;
13419;SDS011;6781;58.440;15.470;2023-08-01T03:52:33;1.38;;;1.20;;
13419;SDS011;6781;58.440;15.470;2023-08-01T03:55:00;1.52;;;1.20;;
13419;SDS011;6781;58.440;15.470;2023-08-01T03:57:29;1.05;;;1.05;;
13419;SDS011;6781;58.440;15.470;2023-08-01T03:59:58;2.60;;;1.30;;
13419;SDS011;6781;58.440;15.470;2023-08-01T04:02:26;3.70;;;1.30;;
13419;SDS011;6781;58.440;15.470;2023-08-01T04:04:53;1.55;;;1.33;;
13419;SDS011;6781;58.440;15.470;2023-08-01T04:07:20;1.67;;;1.58;;
13419;SDS011;6781;58.440;15.470;2023-08-01T04:09:47;1.17;;;1.05;;
13419;SDS011;6781;58.440;15.470;2023-08-01T04:12:15;1.67;;;1.40;;
13419;SDS011;6781;58.440;15.470;2023-08-01T04:14:44;2.28;;;1.60;;
13419;SDS011;6781;58.440;15.470;2023-08-01T04:17:11;1.35;;;1.25;;
13419;SDS011;6781;58.440;15.470;2023-08-01T04:19:38;1.77;;;1.63;;
13419;SDS011;6781;58.440;15.470;2023-08-01T04:22:05;1.98;;;1.45;;
13419;SDS011;6781;58.440;15.470;2023-08-01T04:24:34;1.45;;;1.13;;
13419;SDS011;6781;58.440;15.470;2023-08-01T04:27:01;1.67;;;1.38;;
13419;SDS011;6781;58.440;15.470;2023-08-01T04:29:28;1.35;;;1.25;;
13419;SDS011;6781;58.440;15.470;2023-08-01T04:31:57;1.90;;;1.80;;
13419;SDS011;6781;58.440;15.470;2023-08-01T04:34:24;3.92;;;1.50;;
13419;SDS011;6781;58.440;15.470;2023-08-01T04:36:51;1.50;;;1.40;;
13419;SDS011;6781;58.440;15.470;2023-08-01T04:39:20;2.97;;;1.42;;
13419;SDS011;6781;58.440;15.470;2023-08-01T04:41:47;3.50;;;1.48;;
13419;SDS011;6781;58.440;15.470;2023-08-01T04:44:15;2.15;;;1.50;;
13419;SDS011;6781;58.440;15.470;2023-08-01T04:46:41;2.45;;;1.70;;
13419;SDS011;6781;58.440;15.470;2023-08-01T04:49:10;2.05;;;1.80;;
13419;SDS011;6781;58.440;15.470;2023-08-01T04:51:37;2.25;;;1.70;;
13419;SDS011;6781;58.440;15.470;2023-08-01T04:54:04;1.55;;;1.45;;
13419;SDS011;6781;58.440;15.470;2023-08-01T04:56:31;2.55;;;1.70;;
13419;SDS011;6781;58.440;15.470;2023-08-01T04:58:58;1.45;;;1.35;;
13419;SDS011;6781;58.440;15.470;2023-08-01T05:01:27;1.88;;;1.77;;
13419;SDS011;6781;58.440;15.470;2023-08-01T05:03:54;1.45;;;1.35;;
13419;SDS011;6781;58.440;15.470;2023-08-01T05:06:22;1.58;;;1.42;;
13419;SDS011;6781;58.440;15.470;2023-08-01T05:08:49;1.80;;;1.70;;
13419;SDS011;6781;58.440;15.470;2023-08-01T05:11:16;1.50;;;1.38;;
13419;SDS011;6781;58.440;15.470;2023-08-01T05:13:43;2.33;;;1.60;;
13419;SDS011;6781;58.440;15.470;2023-08-01T05:16:10;3.00;;;1.70;;
13419;SDS011;6781;58.440;15.470;2023-08-01T05:18:37;1.48;;;1.38;;
13419;SDS011;6781;58.440;15.470;2023-08-01T05:21:04;2.08;;;1.48;;
13419;SDS011;6781;58.440;15.470;2023-08-01T05:23:33;3.10;;;2.10;;
13419;SDS011;6781;58.440;15.470;2023-08-01T05:26:00;2.88;;;1.70;;
13419;SDS011;6781;58.440;15.470;2023-08-01T05:28:27;2.20;;;1.60;;
13419;SDS011;6781;58.440;15.470;2023-08-01T05:30:54;3.38;;;1.58;;
13419;SDS011;6781;58.440;15.470;2023-08-01T05:33:21;1.90;;;1.80;;
13419;SDS011;6781;58.440;15.470;2023-08-01T05:35:48;2.63;;;1.40;;
13419;SDS011;6781;58.440;15.470;2023-08-01T05:38:15;2.72;;;1.75;;
13419;SDS011;6781;58.440;15.470;2023-08-01T05:40:44;1.85;;;1.70;;
13419;SDS011;6781;58.440;15.470;2023-08-01T05:43:11;1.52;;;1.35;;
13419;SDS011;6781;58.440;15.470;2023-08-01T05:45:38;1.30;;;1.30;;
13419;SDS011;6781;58.440;15.470;2023-08-01T05:48:05;3.25;;;2.00;;
13419;SDS011;6781;58.440;15.470;2023-08-01T05:50:32;4.28;;;1.58;;
13419;SDS011;6781;58.440;15.470;2023-08-01T05:52:59;3.38;;;2.20;;
13419;SDS011;6781;58.440;15.470;2023-08-01T05:55:26;2.75;;;1.70;;
13419;SDS011;6781;58.440;15.470;2023-08-01T05:57:55;5.05;;;2.15;;
13419;SDS011;6781;58.440;15.470;2023-08-01T06:00:22;3.97;;;2.10;;
13419;SDS011;6781;58.440;15.470;2023-08-01T06:02:49;2.60;;;1.80;;
13419;SDS011;6781;58.440;15.470;2023-08-01T06:05:16;4.45;;;1.73;;
13419;SDS011;6781;58.440;15.470;2023-08-01T06:07:43;2.28;;;2.00;;
13419;SDS011;6781;58.440;15.470;2023-08-01T06:10:11;1.85;;;1.75;;
13419;SDS011;6781;58.440;15.470;2023-08-01T06:12:38;2.22;;;2.00;;
13419;SDS011;6781;58.440;15.470;2023-08-01T06:15:07;2.75;;;2.13;;
13419;SDS011;6781;58.440;15.470;2023-08-01T06:17:34;4.00;;;1.95;;
13419;SDS011;6781;58.440;15.470;2023-08-01T06:20:01;2.13;;;2.00;;
13419;SDS011;6781;58.440;15.470;2023-08-01T06:22:30;1.95;;;1.70;;
13419;SDS011;6781;58.440;15.470;2023-08-01T06:24:57;2.92;;;2.17;;
13419;SDS011;6781;58.440;15.470;2023-08-01T06:27:24;2.75;;;2.40;;
13419;SDS011;6781;58.440;15.470;2023-08-01T06:29:51;5.05;;;2.40;;
13419;SDS011;6781;58.440;15.470;2023-08-01T06:32:19;4.07;;;2.78;;
13419;SDS011;6781;58.440;15.470;2023-08-01T06:34:47;2.83;;;2.40;;
13419;SDS011;6781;58.440;15.470;2023-08-01T06:37:14;2.55;;;2.35;;
13419;SDS011;6781;58.440;15.470;2023-08-01T06:39:41;2.00;;;1.90;;
13419;SDS011;6781;58.440;15.470;2023-08-01T06:42:08;1.90;;;1.80;;
13419;SDS011;6781;58.440;15.470;2023-08-01T06:44:35;3.15;;;2.92;;
13419;SDS011;6781;58.440;15.470;2023-08-01T06:47:02;2.80;;;2.55;;
13419;SDS011;6781;58.440;15.470;2023-08-01T06:49:30;3.00;;;2.70;;
13419;SDS011;6781;58.440;15.470;2023-08-01T06:51:58;3.03;;;2.83;;
13419;SDS011;6781;58.440;15.470;2023-08-01T06:54:24;3.20;;;2.90;;
13419;SDS011;6781;58.440;15.470;2023-08-01T06:56:52;2.33;;;2.22;;
13419;SDS011;6781;58.440;15.470;2023-08-01T06:59:21;2.97;;;2.70;;
13419;SDS011;6781;58.440;15.470;2023-08-01T07:01:48;3.42;;;3.13;;
13419;SDS011;6781;58.440;15.470;2023-08-01T07:04:15;2.88;;;2.60;;
13419;SDS011;6781;58.440;15.470;2023-08-01T07:06:44;2.60;;;2.35;;
13419;SDS011;6781;58.440;15.470;2023-08-01T07:09:11;2.40;;;2.20;;
13419;SDS011;6781;58.440;15.470;2023-08-01T07:11:38;3.20;;;2.85;;
13419;SDS011;6781;58.440;15.470;2023-08-01T07:14:06;3.60;;;2.58;;
13419;SDS011;6781;58.440;15.470;2023-08-01T07:16:33;2.72;;;2.53;;
13419;SDS011;6781;58.440;15.470;2023-08-01T07:19:00;2.67;;;2.47;;
13419;SDS011;6781;58.440;15.470;2023-08-01T07:21:27;3.33;;;2.50;;
13419;SDS011;6781;58.440;15.470;2023-08-01T07:23:56;2.20;;;2.08;;
13419;SDS011;6781;58.440;15.470;2023-08-01T07:26:24;2.58;;;2.30;;
13419;SDS011;6781;58.440;15.470;2023-08-01T07:28:53;2.33;;;2.13;;
13419;SDS011;6781;58.440;15.470;2023-08-01T07:31:20;2.08;;;1.98;;
13419;SDS011;6781;58.440;15.470;2023-08-01T07:33:48;2.60;;;2.40;;
13419;SDS011;6781;58.440;15.470;2023-08-01T07:36:15;2.92;;;2.60;;
13419;SDS011;6781;58.440;15.470;2023-08-01T07:38:42;2.50;;;2.30;;
13419;SDS011;6781;58.440;15.470;2023-08-01T07:41:10;2.50;;;2.30;;
13419;SDS011;6781;58.440;15.470;2023-08-01T07:43:37;2.92;;;2.00;;
13419;SDS011;6781;58.440;15.470;2023-08-01T07:46:04;2.85;;;2.05;;
13419;SDS011;6781;58.440;15.470;2023-08-01T07:48:34;2.50;;;2.30;;
13419;SDS011;6781;58.440;15.470;2023-08-01T07:51:01;3.65;;;2.17;;
13419;SDS011;6781;58.440;15.470;2023-08-01T07:53:29;4.18;;;2.20;;
13419;SDS011;6781;58.440;15.470;2023-08-01T07:55:56;2.60;;;1.60;;
13419;SDS011;6781;58.440;15.470;2023-08-01T07:58:25;2.83;;;2.38;;
13419;SDS011;6781;58.440;15.470;2023-08-01T08:00:52;2.30;;;2.00;;
13419;SDS011;6781;58.440;15.470;2023-08-01T08:03:19;2.17;;;2.00;;
13419;SDS011;6781;58.440;15.470;2023-08-01T08:05:48;3.22;;;1.67;;
13419;SDS011;6781;58.440;15.470;2023-08-01T08:08:15;3.72;;;1.95;;
13419;SDS011;6781;58.440;15.470;2023-08-01T08:10:42;1.83;;;1.73;;
13419;SDS011;6781;58.440;15.470;2023-08-01T08:13:09;2.55;;;2.00;;
13419;SDS011;6781;58.440;15.470;2023-08-01T08:15:38;1.88;;;1.70;;
13419;SDS011;6781;58.440;15.470;2023-08-01T08:18:05;2.03;;;1.92;;
13419;SDS011;6781;58.440;15.470;2023-08-01T08:20:39;1.90;;;1.80;;
13419;SDS011;6781;58.440;15.470;2023-08-01T08:23:08;1.90;;;1.80;;
13419;SDS011;6781;58.440;15.470;2023-08-01T08:25:35;2.67;;;2.13;;
13419;SDS011;6781;58.440;15.470;2023-08-01T08:28:03;1.92;;;1.83;;
13419;SDS011;6781;58.440;15.470;2023-08-01T08:30:30;2.47;;;2.28;;
13419;SDS011;6781;58.440;15.470;2023-08-01T08:32:59;2.30;;;2.15;;
13419;SDS011;6781;58.440;15.470;2023-08-01T08:35:29;2.85;;;1.98;;
13419;SDS011;6781;58.440;15.470;2023-08-01T08:37:57;2.13;;;1.90;;
13419;SDS011;6781;58.440;15.470;2023-08-01T08:40:25;2.85;;;1.70;;
13419;SDS011;6781;58.440;15.470;2023-08-01T08:42:52;2.28;;;1.60;;
13419;SDS011;6781;58.440;15.470;2023-08-01T08:45:20;2.45;;;2.20;;
13419;SDS011;6781;58.440;15.470;2023-08-01T08:47:49;2.20;;;2.08;;
13419;SDS011;6781;58.440;15.470;2023-08-01T08:50:23;2.67;;;1.70;;
13419;SDS011;6781;58.440;15.470;2023-08-01T08:52:51;2.97;;;1.90;;
13419;SDS011;6781;58.440;15.470;2023-08-01T08:55:19;2.05;;;1.85;;
13419;SDS011;6781;58.440;15.470;2023-08-01T08:57:48;2.05;;;1.50;;
13419;SDS011;6781;58.440;15.470;2023-08-01T09:00:17;1.80;;;1.70;;
13419;SDS011;6781;58.440;15.470;2023-08-01T09:02:45;1.67;;;1.58;;
13419;SDS011;6781;58.440;15.470;2023-08-01T09:05:12;1.65;;;1.55;;
13419;SDS011;6781;58.440;15.470;2023-08-01T09:07:42;1.67;;;1.58;;
13419;SDS011;6781;58.440;15.470;2023-08-01T09:10:09;1.70;;;1.60;;
13419;SDS011;6781;58.440;15.470;2023-08-01T09:12:37;1.85;;;1.70;;
13419;SDS011;6781;58.440;15.470;2023-08-01T09:15:04;2.45;;;1.80;;
13419;SDS011;6781;58.440;15.470;2023-08-01T09:17:32;3.40;;;1.60;;
13419;SDS011;6781;58.440;15.470;2023-08-01T09:20:03;1.80;;;1.70;;
13419;SDS011;6781;58.440;15.470;2023-08-01T09:22:42;3.40;;;1.80;;
13419;SDS011;6781;58.440;15.470;2023-08-01T09:25:10;1.95;;;1.77;;
13419;SDS011;6781;58.440;15.470;2023-08-01T09:27:38;1.85;;;1.75;;
13419;SDS011;6781;58.440;15.470;2023-08-01T09:30:06;3.60;;;1.58;;
13419;SDS011;6781;58.440;15.470;2023-08-01T09:32:34;1.90;;;1.80;;
13419;SDS011;6781;58.440;15.470;2023-08-01T09:35:02;2.28;;;1.55;;
13419;SDS011;6781;58.440;15.470;2023-08-01T09:37:37;1.52;;;1.42;;
13419;SDS011;6781;58.440;15.470;2023-08-01T09:40:07;2.35;;;1.67;;
13419;SDS011;6781;58.440;15.470;2023-08-01T09:42:38;1.50;;;1.40;;
13419;SDS011;6781;58.440;15.470;2023-08-01T09:45:07;1.63;;;1.45;;
13419;SDS011;6781;58.440;15.470;2023-08-01T09:47:39;2.05;;;1.38;;
13419;SDS011;6781;58.440;15.470;2023-08-01T09:50:06;2.78;;;1.33;;
13419;SDS011;6781;58.440;15.470;2023-08-01T09:52:35;1.23;;;1.20;;
13419;SDS011;6781;58.440;15.470;2023-08-01T09:55:02;2.58;;;1.30;;
13419;SDS011;6781;58.440;15.470;2023-08-01T09:57:31;1.70;;;1.60;;
13419;SDS011;6781;58.440;15.470;2023-08-01T09:59:59;1.10;;;1.10;;
13419;SDS011;6781;58.440;15.470;2023-08-01T10:02:26;1.30;;;1.17;;
13419;SDS011;6781;58.440;15.470;2023-08-01T10:04:57;2.65;;;1.50;;
13419;SDS011;6781;58.440;15.470;2023-08-01T10:07:28;1.50;;;1.40;;
13419;SDS011;6781;58.440;15.470;2023-08-01T10:09:57;1.50;;;1.38;;
13419;SDS011;6781;58.440;15.470;2023-08-01T10:12:25;1.48;;;1.30;;
13419;SDS011;6781;58.440;15.470;2023-08-01T10:14:55;1.77;;;1.38;;
13419;SDS011;6781;58.440;15.470;2023-08-01T10:17:22;1.30;;;1.15;;
13419;SDS011;6781;58.440;15.470;2023-08-01T10:19:51;1.70;;;1.17;;
13419;SDS011;6781;58.440;15.470;2023-08-01T10:22:21;1.60;;;1.10;;
13419;SDS011;6781;58.440;15.470;2023-08-01T10:24:49;1.05;;;1.02;;
13419;SDS011;6781;58.440;15.470;2023-08-01T10:27:18;2.20;;;1.52;;
13419;SDS011;6781;58.440;15.470;2023-08-01T10:29:57;1.40;;;1.30;;
13419;SDS011;6781;58.440;15.470;2023-08-01T10:32:27;2.08;;;1.48;;
13419;SDS011;6781;58.440;15.470;2023-08-01T10:34:57;2.03;;;1.20;;
13419;SDS011;6781;58.440;15.470;2023-08-01T10:37:25;1.38;;;1.27;;
13419;SDS011;6781;58.440;15.470;2023-08-01T10:39:58;1.30;;;1.20;;
13419;SDS011;6781;58.440;15.470;2023-08-01T10:42:36;2.20;;;1.20;;
13419;SDS011;6781;58.440;15.470;2023-08-01T10:45:06;1.65;;;1.23;;
13419;SDS011;6781;58.440;15.470;2023-08-01T10:47:37;1.63;;;1.13;;
13419;SDS011;6781;58.440;15.470;2023-08-01T10:50:12;1.20;;;1.00;;
13419;SDS011;6781;58.440;15.470;2023-08-01T10:52:41;1.50;;;1.20;;
13419;SDS011;6781;58.440;15.470;2023-08-01T10:55:09;1.33;;;1.23;;
13419;SDS011;6781;58.440;15.470;2023-08-01T10:57:38;3.55;;;1.17;;
13419;SDS011;6781;58.440;15.470;2023-08-01T11:00:07;1.40;;;1.20;;
13419;SDS011;6781;58.440;15.470;2023-08-01T11:02:48;1.63;;;1.08;;
13419;SDS011;6781;58.440;15.470;2023-08-01T11:05:15;1.95;;;1.48;;
13419;SDS011;6781;58.440;15.470;2023-08-01T11:07:42;2.53;;;1.30;;
13419;SDS011;6781;58.440;15.470;2023-08-01T11:10:21;1.58;;;0.90;;
13419;SDS011;6781;58.440;15.470;2023-08-01T11:12:48;1.50;;;1.00;;
13419;SDS011;6781;58.440;15.470;2023-08-01T11:15:16;1.70;;;1.00;;
13419;SDS011;6781;58.440;15.470;2023-08-01T11:17:46;1.40;;;1.25;;
13419;SDS011;6781;58.440;15.470;2023-08-01T11:20:14;1.30;;;1.20;;
13419;SDS011;6781;58.440;15.470;2023-08-01T11:22:49;1.30;;;1.20;;
13419;SDS011;6781;58.440;15.470;2023-08-01T11:25:18;1.45;;;1.35;;
13419;SDS011;6781;58.440;15.470;2023-08-01T11:27:45;2.97;;;1.40;;
13419;SDS011;6781;58.440;15.470;2023-08-01T11:30:12;3.13;;;1.58;;
13419;SDS011;6781;58.440;15.470;2023-08-01T11:32:40;2.65;;;1.75;;
13419;SDS011;6781;58.440;15.470;2023-08-01T11:35:07;2.00;;;1.70;;
13419;SDS011;6781;58.440;15.470;2023-08-01T11:37:35;2.75;;;1.40;;
13419;SDS011;6781;58.440;15.470;2023-08-01T11:40:03;1.70;;;1.40;;
13419;SDS011;6781;58.440;15.470;2023-08-01T11:42:31;3.05;;;1.80;;
13419;SDS011;6781;58.440;15.470;2023-08-01T11:45:08;1.60;;;1.50;;
13419;SDS011;6781;58.440;15.470;2023-08-01T11:47:36;1.65;;;1.55;;
13419;SDS011;6781;58.440;15.470;2023-08-01T11:50:06;1.92;;;1.60;;
13419;SDS011;6781;58.440;15.470;2023-08-01T11:52:34;1.65;;;1.48;;
13419;SDS011;6781;58.440;15.470;2023-08-01T11:55:01;2.13;;;1.85;;
13419;SDS011;6781;58.440;15.470;2023-08-01T11:57:28;2.15;;;1.70;;
13419;SDS011;6781;58.440;15.470;2023-08-01T11:59:55;1.70;;;1.60;;
13419;SDS011;6781;58.440;15.470;2023-08-01T12:02:23;1.50;;;1.40;;
13419;SDS011;6781;58.440;15.470;2023-08-01T12:04:50;1.52;;;1.38;;
13419;SDS011;6781;58.440;15.470;2023-08-01T12:07:20;1.35;;;1.25;;
13419;SDS011;6781;58.440;15.470;2023-08-01T12:09:54;2.80;;;1.45;;
13419;SDS011;6781;58.440;15.470;2023-08-01T12:12:23;1.35;;;1.27;;
13419;SDS011;6781;58.440;15.470;2023-08-01T12:14:50;1.30;;;1.20;;
13419;SDS011;6781;58.440;15.470;2023-08-01T12:17:17;1.48;;;1.20;;
13419;SDS011;6781;58.440;15.470;2023-08-01T12:19:45;1.65;;;1.20;;
13419;SDS011;6781;58.440;15.470;2023-08-01T12:22:12;1.35;;;1.10;;
13419;SDS011;6781;58.440;15.470;2023-08-01T12:24:41;1.25;;;1.10;;
13419;SDS011;6781;58.440;15.470;2023-08-01T12:27:08;1.35;;;1.10;;
13419;SDS011;6781;58.440;15.470;2023-08-01T12:29:35;1.45;;;1.35;;
13419;SDS011;6781;58.440;15.470;2023-08-01T12:32:03;2.75;;;1.20;;
13419;SDS011;6781;58.440;15.470;2023-08-01T12:34:31;0.90;;;0.90;;
13419;SDS011;6781;58.440;15.470;2023-08-01T12:36:59;1.50;;;1.00;;
13419;SDS011;6781;58.440;15.470;2023-08-01T12:39:26;1.08;;;0.95;;
13419;SDS011;6781;58.440;15.470;2023-08-01T12:41:54;2.00;;;1.00;;
13419;SDS011;6781;58.440;15.470;2023-08-01T12:44:21;1.23;;;1.00;;
13419;SDS011;6781;58.440;15.470;2023-08-01T12:46:48;1.20;;;1.10;;
13419;SDS011;6781;58.440;15.470;2023-08-01T12:49:17;1.15;;;1.05;;
13419;SDS011;6781;58.440;15.470;2023-08-01T12:51:45;3.17;;;1.10;;
13419;SDS011;6781;58.440;15.470;2023-08-01T12:54:12;1.30;;;1.15;;
13419;SDS011;6781;58.440;15.470;2023-08-01T12:56:39;0.80;;;0.80;;
13419;SDS011;6781;58.440;15.470;2023-08-01T12:59:07;1.65;;;1.13;;
13419;SDS011;6781;58.440;15.470;2023-08-01T13:01:34;1.08;;;0.95;;
13419;SDS011;6781;58.440;15.470;2023-08-01T13:04:01;1.60;;;0.98;;
13419;SDS011;6781;58.440;15.470;2023-08-01T13:06:28;0.98;;;0.90;;
13419;SDS011;6781;58.440;15.470;2023-08-01T13:08:55;1.35;;;1.02;;
13419;SDS011;6781;58.440;15.470;2023-08-01T13:11:24;0.95;;;0.95;;
13419;SDS011;6781;58.440;15.470;2023-08-01T13:13:51;2.17;;;1.30;;
13419;SDS011;6781;58.440;15.470;2023-08-01T13:16:19;1.33;;;0.80;;
13419;SDS011;6781;58.440;15.470;2023-08-01T13:18:46;1.02;;;0.93;;
13419;SDS011;6781;58.440;15.470;2023-08-01T13:21:13;0.70;;;0.70;;
13419;SDS011;6781;58.440;15.470;2023-08-01T13:23:40;2.70;;;1.10;;
13419;SDS011;6781;58.440;15.470;2023-08-01T13:26:08;1.80;;;0.90;;
13419;SDS011;6781;58.440;15.470;2023-08-01T13:28:35;1.25;;;1.00;;
13419;SDS011;6781;58.440;15.470;2023-08-01T13:31:02;1.50;;;1.08;;
13419;SDS011;6781;58.440;15.470;2023-08-01T13:33:30;2.08;;;0.90;;
13419;SDS011;6781;58.440;15.470;2023-08-01T13:35:57;1.25;;;1.10;;
13419;SDS011;6781;58.440;15.470;2023-08-01T13:38:24;1.48;;;0.90;;
13419;SDS011;6781;58.440;15.470;2023-08-01T13:40:51;1.23;;;1.13;;
13419;SDS011;6781;58.440;15.470;2023-08-01T13:43:18;2.75;;;1.10;;
13419;SDS011;6781;58.440;15.470;2023-08-01T13:45:46;1.85;;;1.30;;
13419;SDS011;6781;58.440;15.470;2023-08-01T13:48:13;1.55;;;1.27;;
13419;SDS011;6781;58.440;15.470;2023-08-01T13:50:41;0.93;;;0.93;;
13419;SDS011;6781;58.440;15.470;2023-08-01T13:53:08;1.67;;;1.17;;
13419;SDS011;6781;58.440;15.470;2023-08-01T13:55:39;0.95;;;0.95;;
13419;SDS011;6781;58.440;15.470;2023-08-01T13:58:06;1.42;;;1.05;;
13419;SDS011;6781;58.440;15.470;2023-08-01T14:00:33;0.90;;;0.90;;
13419;SDS011;6781;58.440;15.470;2023-08-01T14:03:00;1.30;;;1.20;;
13419;SDS011;6781;58.440;15.470;2023-08-01T14:05:27;1.70;;;0.90;;
13419;SDS011;6781;58.440;15.470;2023-08-01T14:07:56;1.30;;;1.10;;
13419;SDS011;6781;58.440;15.470;2023-08-01T14:10:25;1.35;;;1.25;;
13419;SDS011;6781;58.440;15.470;2023-08-01T14:12:52;1.20;;;0.98;;
13419;SDS011;6781;58.440;15.470;2023-08-01T14:15:19;1.75;;;1.40;;
13419;SDS011;6781;58.440;15.470;2023-08-01T14:17:46;1.10;;;1.10;;
13419;SDS011;6781;58.440;15.470;2023-08-01T14:20:13;1.27;;;1.17;;
13419;SDS011;6781;58.440;15.470;2023-08-01T14:22:41;1.40;;;1.27;;
13419;SDS011;6781;58.440;15.470;2023-08-01T14:25:10;1.40;;;1.20;;
13419;SDS011;6781;58.440;15.470;2023-08-01T14:27:37;1.20;;;1.10;;
13419;SDS011;6781;58.440;15.470;2023-08-01T14:30:04;1.15;;;1.05;;
13419;SDS011;6781;58.440;15.470;2023-08-01T14:32:32;0.80;;;0.80;;
13419;SDS011;6781;58.440;15.470;2023-08-01T14:35:03;1.00;;;0.93;;
13419;SDS011;6781;58.440;15.470;2023-08-01T14:37:30;1.10;;;1.10;;
13419;SDS011;6781;58.440;15.470;2023-08-01T14:39:58;1.05;;;0.80;;
13419;SDS011;6781;58.440;15.470;2023-08-01T14:42:26;1.35;;;1.25;;
13419;SDS011;6781;58.440;15.470;2023-08-01T14:44:53;0.90;;;0.88;;
13419;SDS011;6781;58.440;15.470;2023-08-01T14:47:22;1.27;;;1.10;;
13419;SDS011;6781;58.440;15.470;2023-08-01T14:49:49;1.95;;;0.90;;
13419;SDS011;6781;58.440;15.470;2023-08-01T14:52:16;1.70;;;1.20;;
13419;SDS011;6781;58.440;15.470;2023-08-01T14:54:43;1.30;;;1.20;;